Time;durP1;ratioP1;P1;durP2;ratioP2;P2;SDS_P1;SDS_P2;PMS_P1;PMS_P2;Temp;Humidity;BMP_temperature;BMP_pressure;BME280_temperature;BME280_humidity;BME280_pressure;Samples;Min_cycle;Max_cycle;Signal;HPM_P1;HPM_P2
2021/12/17 07:51:24;;;;;;;14.52;9.40;;;;;;;;;;5114694;27;20502;-70
2021/12/17 07:53:51;;;;;;;21.13;9.48;;;;;;;;;;5123885;28;20023;-70
2021/12/17 07:56:19;;;;;;;18.70;10.20;;;;;;;;;;5098522;28;20028;-70
2021/12/17 07:58:46;;;;;;;21.30;10.30;;;;;;;;;;5114660;27;20028;-70
2021/12/17 08:01:13;;;;;;;16.27;9.90;;;;;;;;;;5116025;27;20081;-71
2021/12/17 08:03:39;;;;;;;16.98;9.02;;;;;;;;;;5128011;27;20030;-70
2021/12/17 08:06:06;;;;;;;16.80;9.77;;;;;;;;;;5133847;27;20032;-70
2021/12/17 08:08:32;;;;;;;17.38;9.82;;;;;;;;;;5135780;27;20023;-71
2021/12/17 08:10:58;;;;;;;17.35;9.30;;;;;;;;;;5131426;27;20392;-71
2021/12/17 08:13:28;;;;;;;19.35;10.40;;;;;;;;;;5132108;27;20023;-71
2021/12/17 08:24:38;;;;;;;18.05;10.35;;;;;;;;;;5117445;27;20440;-70
2021/12/17 08:31:50;;;;;;;20.02;10.30;;;;;;;;;;5131784;27;20482;-70
2021/12/17 08:34:17;;;;;;;18.35;10.85;;;;;;;;;;5126909;27;20024;-70
2021/12/17 08:36:43;;;;;;;17.88;10.43;;;;;;;;;;5133866;27;20031;-70
2021/12/17 08:39:09;;;;;;;18.15;10.40;;;;;;;;;;5132947;27;20024;-69
2021/12/17 08:41:38;;;;;;;16.20;9.82;;;;;;;;;;5136722;27;20278;-69
2021/12/17 08:44:04;;;;;;;15.15;8.93;;;;;;;;;;5125753;27;20024;-69
2021/12/17 08:46:30;;;;;;;11.57;7.85;;;;;;;;;;5132729;27;20027;-70
2021/12/17 08:48:56;;;;;;;14.38;8.13;;;;;;;;;;5126063;27;20032;-71
2021/12/17 08:51:23;;;;;;;13.07;8.02;;;;;;;;;;5115331;27;20031;-71
2021/12/17 08:53:49;;;;;;;11.73;7.63;;;;;;;;;;5117297;27;20016;-72
2021/12/17 08:56:18;;;;;;;14.30;7.82;;;;;;;;;;5118662;27;20540;-71
2021/12/17 08:58:45;;;;;;;11.65;7.32;;;;;;;;;;5124171;27;20011;-70
2021/12/17 09:01:11;;;;;;;15.63;8.57;;;;;;;;;;5123440;27;20055;-69
2021/12/17 09:03:37;;;;;;;17.35;8.02;;;;;;;;;;5118337;27;20026;-69
2021/12/17 09:06:04;;;;;;;16.83;8.40;;;;;;;;;;5120543;27;20039;-69
2021/12/17 09:08:31;;;;;;;11.32;7.30;;;;;;;;;;5119453;27;20057;-69
2021/12/17 09:10:57;;;;;;;12.18;7.80;;;;;;;;;;5111819;27;20046;-71
2021/12/17 09:13:27;;;;;;;13.18;8.30;;;;;;;;;;5116831;27;20021;-70
2021/12/17 09:15:57;;;;;;;10.93;7.15;;;;;;;;;;5115242;27;20482;-69
2021/12/17 09:18:23;;;;;;;13.65;8.38;;;;;;;;;;5117617;27;20432;-70
2021/12/17 09:20:49;;;;;;;14.73;8.40;;;;;;;;;;5121449;27;20020;-70
2021/12/17 09:23:15;;;;;;;14.10;8.20;;;;;;;;;;5117607;27;20049;-70
2021/12/17 09:25:42;;;;;;;17.77;8.82;;;;;;;;;;5118319;27;20023;-70
2021/12/17 09:28:08;;;;;;;16.40;8.45;;;;;;;;;;5112984;27;20455;-71
2021/12/17 09:30:34;;;;;;;16.92;9.60;;;;;;;;;;5105899;27;20062;-71
2021/12/17 09:33:01;;;;;;;17.02;9.27;;;;;;;;;;5109332;27;20521;-71
2021/12/17 09:35:27;;;;;;;14.25;8.93;;;;;;;;;;5118029;27;20390;-70
2021/12/17 09:37:53;;;;;;;14.68;8.18;;;;;;;;;;5115204;27;20050;-69
2021/12/17 09:40:19;;;;;;;14.07;8.73;;;;;;;;;;5116660;27;20607;-69
2021/12/17 09:42:45;;;;;;;15.23;8.13;;;;;;;;;;5116718;27;20016;-70
2021/12/17 09:45:13;;;;;;;15.68;8.43;;;;;;;;;;5101304;28;20048;-71
2021/12/17 09:47:40;;;;;;;13.63;7.88;;;;;;;;;;5122207;27;20498;-70
2021/12/17 09:50:07;;;;;;;17.15;8.40;;;;;;;;;;5112982;27;20472;-70
2021/12/17 09:52:33;;;;;;;14.00;8.38;;;;;;;;;;5109898;27;20046;-69
2021/12/17 09:55:00;;;;;;;18.00;8.93;;;;;;;;;;5098478;27;20028;-70
2021/12/17 09:57:26;;;;;;;15.63;9.35;;;;;;;;;;5113740;27;20633;-70
2021/12/17 09:59:53;;;;;;;14.57;9.25;;;;;;;;;;5118718;27;20019;-70
2021/12/17 10:02:19;;;;;;;14.73;9.63;;;;;;;;;;5116934;27;20500;-71
2021/12/17 10:04:46;;;;;;;14.82;9.23;;;;;;;;;;5113903;27;20035;-71
2021/12/17 10:07:25;;;;;;;14.43;9.30;;;;;;;;;;5100992;27;20059;-70
2021/12/17 10:09:56;;;;;;;20.27;9.07;;;;;;;;;;5101634;27;20028;-70
2021/12/17 10:12:32;;;;;;;16.35;9.77;;;;;;;;;;5117204;27;20024;-70
2021/12/17 10:15:07;;;;;;;17.48;10.32;;;;;;;;;;5116579;27;20103;-70
2021/12/17 10:17:36;;;;;;;16.98;9.52;;;;;;;;;;5120526;27;20466;-71
2021/12/17 10:20:04;;;;;;;16.35;10.15;;;;;;;;;;5103621;27;20500;-70
2021/12/17 10:22:31;;;;;;;20.25;10.07;;;;;;;;;;5105157;27;20387;-70
2021/12/17 10:24:57;;;;;;;14.55;9.98;;;;;;;;;;5102298;27;20085;-70
2021/12/17 10:27:27;;;;;;;15.85;10.35;;;;;;;;;;5104740;27;20028;-71
2021/12/17 10:29:53;;;;;;;15.55;9.57;;;;;;;;;;5108786;27;20066;-70
2021/12/17 10:32:20;;;;;;;15.05;9.75;;;;;;;;;;5111964;27;20034;-70
2021/12/17 10:35:00;;;;;;;16.00;10.23;;;;;;;;;;5110146;27;20146;-71
2021/12/17 10:37:56;;;;;;;16.60;9.48;;;;;;;;;;5109890;27;20490;-70
2021/12/17 10:40:22;;;;;;;14.68;8.70;;;;;;;;;;5110012;27;20135;-71
2021/12/17 10:43:13;;;;;;;17.50;10.68;;;;;;;;;;5114735;27;20031;-71
2021/12/17 10:45:42;;;;;;;15.20;9.93;;;;;;;;;;5109136;27;20074;-72
2021/12/17 10:48:26;;;;;;;16.80;10.45;;;;;;;;;;5116654;27;20073;-71
2021/12/17 10:51:13;;;;;;;15.80;10.18;;;;;;;;;;5117106;27;20138;-71
2021/12/17 10:53:44;;;;;;;22.10;9.68;;;;;;;;;;5120408;27;20529;-72
2021/12/17 10:56:15;;;;;;;15.93;9.82;;;;;;;;;;5115134;27;20032;-72
2021/12/17 10:58:52;;;;;;;21.73;10.88;;;;;;;;;;5109426;27;20026;-71
2021/12/17 11:01:18;;;;;;;16.15;9.15;;;;;;;;;;5110883;27;20050;-71
2021/12/17 11:03:44;;;;;;;17.60;10.20;;;;;;;;;;5116081;27;20032;-71
2021/12/17 11:06:11;;;;;;;24.42;11.32;;;;;;;;;;5117690;27;20073;-72
2021/12/17 11:08:39;;;;;;;16.42;10.02;;;;;;;;;;5120109;27;20027;-71
2021/12/17 11:11:12;;;;;;;15.85;10.00;;;;;;;;;;5112963;27;20055;-72
2021/12/17 11:13:52;;;;;;;15.88;9.60;;;;;;;;;;5109558;27;20019;-72
2021/12/17 11:16:19;;;;;;;16.65;10.38;;;;;;;;;;5111893;27;20034;-72
2021/12/17 11:18:46;;;;;;;20.20;10.43;;;;;;;;;;5115599;27;20034;-72
2021/12/17 11:21:13;;;;;;;15.07;9.20;;;;;;;;;;5112303;27;20035;-71
2021/12/17 11:23:39;;;;;;;13.07;9.27;;;;;;;;;;5120031;27;20462;-72
2021/12/17 11:26:05;;;;;;;14.43;9.05;;;;;;;;;;5112293;27;20056;-72
2021/12/17 11:28:32;;;;;;;14.27;9.77;;;;;;;;;;5116382;27;20022;-72
2021/12/17 11:30:58;;;;;;;16.70;10.10;;;;;;;;;;5113780;27;20084;-71
2021/12/17 11:33:25;;;;;;;14.95;9.23;;;;;;;;;;5115981;27;20023;-72
2021/12/17 11:35:52;;;;;;;18.88;9.27;;;;;;;;;;5118340;27;20019;-72
2021/12/17 11:38:24;;;;;;;14.88;9.32;;;;;;;;;;5116460;28;20111;-71
2021/12/17 11:40:53;;;;;;;14.18;9.23;;;;;;;;;;5114452;28;20031;-71
2021/12/17 11:43:35;;;;;;;13.35;8.52;;;;;;;;;;5113079;27;20034;-71
2021/12/17 11:46:05;;;;;;;18.70;8.98;;;;;;;;;;5114623;27;20027;-72
2021/12/17 11:48:33;;;;;;;14.95;8.93;;;;;;;;;;5112641;28;20028;-72
2021/12/17 11:51:07;;;;;;;15.65;8.80;;;;;;;;;;5114146;28;20048;-71
2021/12/17 11:53:40;;;;;;;13.52;8.40;;;;;;;;;;5118362;28;20497;-71
2021/12/17 11:56:06;;;;;;;16.98;8.60;;;;;;;;;;5112355;28;20031;-72
2021/12/17 11:58:42;;;;;;;13.57;8.27;;;;;;;;;;5114253;28;20020;-72
2021/12/17 12:01:09;;;;;;;13.57;8.50;;;;;;;;;;5113254;28;20031;-72
2021/12/17 12:03:35;;;;;;;12.73;8.02;;;;;;;;;;5116543;28;20034;-71
2021/12/17 12:06:01;;;;;;;13.13;8.68;;;;;;;;;;5116780;28;20238;-71
2021/12/17 12:08:35;;;;;;;13.18;8.52;;;;;;;;;;5117403;28;20027;-71
2021/12/17 12:11:06;;;;;;;12.82;8.30;;;;;;;;;;5114030;28;20035;-72
2021/12/17 12:13:36;;;;;;;14.50;9.25;;;;;;;;;;5115768;28;20027;-71
2021/12/17 12:16:04;;;;;;;17.92;9.20;;;;;;;;;;5113986;28;20038;-71
2021/12/17 12:18:49;;;;;;;13.57;9.23;;;;;;;;;;5117121;28;20020;-72
2021/12/17 12:21:17;;;;;;;13.98;8.07;;;;;;;;;;5115047;28;20067;-71
2021/12/17 12:23:51;;;;;;;17.67;9.48;;;;;;;;;;5120155;28;20474;-71
2021/12/17 12:26:19;;;;;;;17.33;8.80;;;;;;;;;;5114976;28;20110;-71
2021/12/17 12:28:48;;;;;;;13.13;8.48;;;;;;;;;;5114939;28;20489;-71
2021/12/17 12:31:17;;;;;;;13.20;8.88;;;;;;;;;;5113273;28;20128;-71
2021/12/17 12:34:05;;;;;;;15.43;8.90;;;;;;;;;;5114873;28;20028;-71
2021/12/17 12:36:50;;;;;;;16.13;8.38;;;;;;;;;;5115814;27;20031;-72
2021/12/17 12:39:18;;;;;;;15.02;8.20;;;;;;;;;;5115555;27;20046;-71
2021/12/17 12:41:47;;;;;;;12.88;8.45;;;;;;;;;;5123039;27;20039;-72
2021/12/17 12:44:13;;;;;;;13.05;8.70;;;;;;;;;;5118123;27;20490;-71
2021/12/17 12:46:53;;;;;;;13.90;8.20;;;;;;;;;;5120285;27;20023;-71
2021/12/17 12:49:37;;;;;;;16.60;8.98;;;;;;;;;;5112362;27;20047;-71
2021/12/17 12:52:22;;;;;;;14.25;8.98;;;;;;;;;;5115664;27;20035;-71
2021/12/17 12:54:49;;;;;;;19.05;8.98;;;;;;;;;;5111865;27;20015;-72
2021/12/17 12:57:24;;;;;;;14.60;8.50;;;;;;;;;;5113117;27;20043;-72
2021/12/17 12:59:52;;;;;;;12.82;7.45;;;;;;;;;;5121489;27;20050;-71
2021/12/17 13:02:19;;;;;;;12.52;7.53;;;;;;;;;;5118559;27;20028;-71
2021/12/17 13:04:46;;;;;;;12.45;7.97;;;;;;;;;;5119277;27;20038;-71
2021/12/17 13:07:14;;;;;;;14.63;7.80;;;;;;;;;;5114695;27;20364;-72
2021/12/17 13:09:44;;;;;;;15.65;8.88;;;;;;;;;;5111824;27;20031;-71
2021/12/17 13:12:10;;;;;;;12.93;8.48;;;;;;;;;;5119294;27;20076;-71
2021/12/17 13:14:43;;;;;;;13.95;7.57;;;;;;;;;;5121161;27;20444;-71
2021/12/17 13:17:41;;;;;;;12.70;8.10;;;;;;;;;;5114898;27;20032;-71
2021/12/17 13:22:57;;;;;;;15.95;8.60;;;;;;;;;;5054827;28;20545;-71
2021/12/17 13:25:27;;;;;;;16.38;8.57;;;;;;;;;;5051714;28;20123;-71
2021/12/17 13:27:54;;;;;;;16.02;7.90;;;;;;;;;;5058037;28;20488;-71
2021/12/17 13:30:26;;;;;;;11.82;7.88;;;;;;;;;;5059408;28;20037;-71
2021/12/17 13:32:52;;;;;;;14.35;8.57;;;;;;;;;;5061601;28;20526;-72
2021/12/17 13:35:19;;;;;;;14.30;7.80;;;;;;;;;;5054609;28;20503;-71
2021/12/17 13:37:45;;;;;;;14.85;8.68;;;;;;;;;;5055370;28;20036;-71
2021/12/17 13:40:13;;;;;;;13.52;8.38;;;;;;;;;;5055275;28;20496;-71
2021/12/17 13:42:43;;;;;;;14.02;8.48;;;;;;;;;;5059234;28;20040;-71
2021/12/17 13:45:13;;;;;;;16.85;8.95;;;;;;;;;;5059479;28;20025;-72
2021/12/17 13:47:41;;;;;;;15.00;8.32;;;;;;;;;;5062109;28;20075;-72
2021/12/17 13:50:10;;;;;;;13.50;8.05;;;;;;;;;;5053995;28;20419;-72
2021/12/17 13:52:37;;;;;;;12.20;8.48;;;;;;;;;;5054370;28;20046;-72
2021/12/17 13:55:06;;;;;;;14.38;8.93;;;;;;;;;;5054060;28;20116;-71
2021/12/17 13:57:32;;;;;;;15.27;9.02;;;;;;;;;;5058853;28;20021;-72
2021/12/17 14:00:04;;;;;;;14.15;8.70;;;;;;;;;;5072662;28;20114;-71
2021/12/17 14:02:33;;;;;;;13.38;8.32;;;;;;;;;;5081655;28;20028;-71
2021/12/17 14:05:02;;;;;;;13.70;8.65;;;;;;;;;;5076786;28;20024;-71
2021/12/17 14:07:29;;;;;;;14.90;8.98;;;;;;;;;;5075938;28;20547;-71
2021/12/17 14:10:14;;;;;;;15.77;9.45;;;;;;;;;;5079204;28;20495;-71
2021/12/17 14:12:41;;;;;;;14.43;9.35;;;;;;;;;;5080951;28;20129;-71
2021/12/17 14:15:07;;;;;;;14.80;9.18;;;;;;;;;;5079580;28;20110;-73
2021/12/17 14:17:36;;;;;;;14.85;9.57;;;;;;;;;;5066579;28;20029;-72
2021/12/17 14:20:10;;;;;;;14.43;9.60;;;;;;;;;;5067346;28;20560;-71
2021/12/17 14:22:38;;;;;;;13.80;8.73;;;;;;;;;;5067691;28;20031;-71
2021/12/17 14:25:23;;;;;;;17.58;10.02;;;;;;;;;;5069177;28;20085;-71
2021/12/17 14:27:49;;;;;;;15.43;9.73;;;;;;;;;;5074016;28;20024;-73
2021/12/17 14:30:16;;;;;;;18.17;10.05;;;;;;;;;;5070315;28;20040;-72
2021/12/17 14:32:43;;;;;;;14.90;9.25;;;;;;;;;;5070401;28;20073;-72
2021/12/17 14:35:10;;;;;;;16.50;9.05;;;;;;;;;;5073176;28;20060;-73
2021/12/17 14:37:48;;;;;;;15.27;9.60;;;;;;;;;;5068275;28;20570;-72
2021/12/17 14:40:29;;;;;;;15.07;9.52;;;;;;;;;;5064974;28;20064;-73
2021/12/17 14:42:57;;;;;;;16.73;9.65;;;;;;;;;;5073097;28;20028;-73
2021/12/17 14:45:32;;;;;;;15.85;9.60;;;;;;;;;;5079144;28;20507;-73
2021/12/17 14:48:18;;;;;;;16.23;9.63;;;;;;;;;;5074714;28;20609;-72
2021/12/17 15:04:45;;;;;;;13.52;9.10;;;;;;;;;;5063885;28;20568;-73
2021/12/17 15:07:11;;;;;;;12.75;9.25;;;;;;;;;;5067622;28;20033;-73
2021/12/17 15:09:43;;;;;;;12.85;8.38;;;;;;;;;;5067309;28;20471;-73
2021/12/17 15:14:55;;;;;;;15.52;8.82;;;;;;;;;;5065033;28;20087;-73
2021/12/17 15:17:21;;;;;;;13.55;9.23;;;;;;;;;;5067823;28;20033;-73
2021/12/17 15:19:48;;;;;;;16.65;8.68;;;;;;;;;;5066893;28;20139;-74
2021/12/17 15:22:14;;;;;;;15.82;10.20;;;;;;;;;;5067120;28;20032;-73
2021/12/17 15:24:40;;;;;;;16.85;8.82;;;;;;;;;;5067187;28;20032;-72
2021/12/17 15:27:06;;;;;;;14.48;9.32;;;;;;;;;;5067371;28;20427;-73
2021/12/17 15:29:32;;;;;;;14.52;8.90;;;;;;;;;;5067902;28;20040;-72
2021/12/17 15:31:59;;;;;;;19.48;8.90;;;;;;;;;;5066997;28;20059;-72
2021/12/17 15:34:25;;;;;;;13.18;8.77;;;;;;;;;;5107806;27;20044;-73
2021/12/17 15:36:52;;;;;;;12.18;8.75;;;;;;;;;;5119600;27;20038;-72
2021/12/17 15:39:18;;;;;;;15.98;8.93;;;;;;;;;;5117018;27;20035;-72
2021/12/17 15:41:44;;;;;;;15.35;9.05;;;;;;;;;;5123574;27;20072;-73
2021/12/17 15:44:11;;;;;;;18.92;9.93;;;;;;;;;;5117170;27;20077;-72
2021/12/17 15:46:37;;;;;;;15.30;10.02;;;;;;;;;;5119391;27;20028;-72
2021/12/17 15:49:04;;;;;;;14.70;9.18;;;;;;;;;;5113086;27;20027;-72
2021/12/17 15:51:31;;;;;;;15.65;9.55;;;;;;;;;;5118428;28;20539;-73
2021/12/17 15:53:57;;;;;;;16.48;9.65;;;;;;;;;;5119683;28;20055;-72
2021/12/17 15:56:23;;;;;;;16.08;10.13;;;;;;;;;;5119638;28;20552;-73
2021/12/17 15:58:49;;;;;;;16.52;9.80;;;;;;;;;;5119431;28;20162;-73
2021/12/17 16:01:16;;;;;;;13.20;9.63;;;;;;;;;;5116350;28;20472;-73
2021/12/17 16:03:43;;;;;;;16.70;10.32;;;;;;;;;;5120209;28;20469;-72
2021/12/17 16:06:10;;;;;;;18.88;10.48;;;;;;;;;;5116939;28;20364;-72
2021/12/17 16:08:42;;;;;;;18.35;10.00;;;;;;;;;;5121914;28;20097;-72
2021/12/17 16:21:52;;;;;;;20.98;11.95;;;;;;;;;;5114197;27;20456;-72
2021/12/17 16:24:19;;;;;;;22.23;12.45;;;;;;;;;;5120426;27;20036;-72
2021/12/17 16:26:45;;;;;;;22.95;13.25;;;;;;;;;;5126324;27;20035;-72
2021/12/17 16:29:18;;;;;;;22.65;13.98;;;;;;;;;;5121106;27;20467;-73
2021/12/17 16:31:45;;;;;;;19.55;12.45;;;;;;;;;;5113244;27;20383;-74
2021/12/17 16:34:11;;;;;;;19.50;12.52;;;;;;;;;;5120224;27;20024;-73
2021/12/17 16:36:38;;;;;;;21.10;13.02;;;;;;;;;;5122832;27;20032;-73
2021/12/17 16:39:06;;;;;;;23.80;13.48;;;;;;;;;;5116207;27;20040;-74
2021/12/17 16:41:32;;;;;;;19.85;13.48;;;;;;;;;;5122096;27;20491;-72
2021/12/17 16:44:02;;;;;;;21.83;13.00;;;;;;;;;;5119902;27;20462;-72
2021/12/17 16:49:04;;;;;;;19.15;12.68;;;;;;;;;;5122419;27;20260;-72
2021/12/17 16:51:30;;;;;;;24.33;12.55;;;;;;;;;;5115731;27;20499;-72
2021/12/17 16:53:57;;;;;;;18.42;12.10;;;;;;;;;;5125713;27;20034;-71
2021/12/17 16:56:23;;;;;;;20.05;13.05;;;;;;;;;;5115404;27;20027;-72
2021/12/17 16:58:49;;;;;;;18.75;12.52;;;;;;;;;;5118847;27;20487;-75
2021/12/17 17:01:15;;;;;;;23.75;13.10;;;;;;;;;;5121129;27;20032;-72
2021/12/17 17:03:42;;;;;;;18.35;12.68;;;;;;;;;;5118563;27;20031;-72
2021/12/17 17:06:08;;;;;;;20.70;12.95;;;;;;;;;;5120851;27;20020;-73
2021/12/17 17:08:35;;;;;;;22.63;12.10;;;;;;;;;;5125714;27;20027;-71
2021/12/17 17:11:03;;;;;;;19.83;13.00;;;;;;;;;;5120536;27;20475;-72
2021/12/17 17:13:30;;;;;;;24.02;12.77;;;;;;;;;;5120266;27;20031;-72
2021/12/17 17:15:56;;;;;;;26.75;12.10;;;;;;;;;;5119904;27;20371;-72
2021/12/17 17:18:23;;;;;;;21.88;12.27;;;;;;;;;;5118183;27;20453;-73
2021/12/17 17:20:49;;;;;;;22.00;12.18;;;;;;;;;;5124619;27;20031;-73
2021/12/17 17:23:16;;;;;;;18.13;11.90;;;;;;;;;;5123124;27;20512;-75
2021/12/17 17:25:42;;;;;;;17.92;10.82;;;;;;;;;;5118100;27;20035;-72
2021/12/17 17:28:08;;;;;;;18.05;11.35;;;;;;;;;;5121051;27;20019;-72
2021/12/17 17:30:35;;;;;;;17.98;11.23;;;;;;;;;;5117607;27;20043;-70
2021/12/17 17:33:01;;;;;;;19.80;11.68;;;;;;;;;;5122572;27;20080;-70
2021/12/17 17:35:28;;;;;;;19.67;10.95;;;;;;;;;;5124085;27;20405;-71
2021/12/17 17:37:54;;;;;;;21.55;11.55;;;;;;;;;;5119079;27;20016;-70
2021/12/17 17:40:20;;;;;;;17.45;10.77;;;;;;;;;;5121089;27;20053;-71
2021/12/17 17:42:46;;;;;;;25.65;12.52;;;;;;;;;;5118013;27;20030;-72
2021/12/17 17:45:12;;;;;;;19.92;11.73;;;;;;;;;;5119265;27;20039;-71
2021/12/17 17:47:44;;;;;;;21.40;11.73;;;;;;;;;;5125269;27;20386;-71
2021/12/17 17:50:10;;;;;;;24.52;12.10;;;;;;;;;;5117148;27;20043;-71
2021/12/17 17:52:36;;;;;;;16.33;9.80;;;;;;;;;;5109224;27;20024;-72
2021/12/17 17:55:03;;;;;;;20.58;11.57;;;;;;;;;;5111687;27;20482;-72
2021/12/17 17:57:29;;;;;;;21.48;11.88;;;;;;;;;;5100696;27;20019;-72
2021/12/17 17:59:57;;;;;;;17.52;10.80;;;;;;;;;;5100090;27;20024;-81
2021/12/17 18:02:23;;;;;;;19.50;11.02;;;;;;;;;;5105783;27;20042;-73
2021/12/17 18:04:49;;;;;;;21.75;11.55;;;;;;;;;;5108886;27;20020;-73
2021/12/17 18:07:15;;;;;;;23.95;12.35;;;;;;;;;;5125417;27;20036;-73
2021/12/17 18:09:42;;;;;;;18.95;10.25;;;;;;;;;;5114305;27;20071;-74
2021/12/17 18:12:09;;;;;;;17.23;11.27;;;;;;;;;;5106580;27;20023;-76
2021/12/17 18:14:38;;;;;;;20.35;11.30;;;;;;;;;;5118184;27;20505;-77
2021/12/17 18:17:07;;;;;;;20.52;11.27;;;;;;;;;;5109274;27;20027;-76
2021/12/17 18:19:34;;;;;;;17.17;10.82;;;;;;;;;;5115639;27;20399;-77
2021/12/17 18:22:00;;;;;;;18.40;11.63;;;;;;;;;;5097481;27;20074;-74
2021/12/17 18:24:26;;;;;;;21.63;11.38;;;;;;;;;;5116074;27;20052;-76
2021/12/17 18:26:53;;;;;;;16.92;11.13;;;;;;;;;;5107706;27;20028;-75
2021/12/17 18:29:19;;;;;;;19.48;11.88;;;;;;;;;;5112102;27;20023;-74
2021/12/17 18:31:45;;;;;;;17.65;10.75;;;;;;;;;;5112346;27;20022;-75
2021/12/17 18:34:11;;;;;;;18.80;10.48;;;;;;;;;;5116880;27;20023;-78
2021/12/17 18:36:38;;;;;;;17.35;10.27;;;;;;;;;;5113710;27;20028;-69
2021/12/17 18:39:05;;;;;;;17.20;10.02;;;;;;;;;;5115790;27;20039;-71
2021/12/17 18:41:42;;;;;;;16.05;10.15;;;;;;;;;;5115258;27;20118;-73
2021/12/17 18:44:10;;;;;;;17.30;9.68;;;;;;;;;;5112254;27;20115;-71
2021/12/17 18:46:38;;;;;;;19.77;10.48;;;;;;;;;;5110904;27;20110;-73
2021/12/17 18:49:05;;;;;;;19.35;10.23;;;;;;;;;;5094779;27;20046;-75
2021/12/17 18:51:31;;;;;;;15.02;9.82;;;;;;;;;;5113830;27;20115;-70
2021/12/17 18:53:57;;;;;;;15.13;9.32;;;;;;;;;;5117341;27;20023;-70
2021/12/17 18:56:27;;;;;;;19.42;9.70;;;;;;;;;;5112549;27;20023;-71
2021/12/17 18:58:56;;;;;;;18.85;10.25;;;;;;;;;;5109436;27;20174;-69
2021/12/17 19:01:23;;;;;;;20.83;10.27;;;;;;;;;;5111117;27;20031;-71
2021/12/17 19:03:50;;;;;;;14.55;10.25;;;;;;;;;;5115879;27;20029;-70
2021/12/17 19:06:16;;;;;;;22.50;9.68;;;;;;;;;;5108748;27;20082;-69
2021/12/17 19:08:43;;;;;;;16.83;9.13;;;;;;;;;;5113330;27;20023;-70
2021/12/17 19:11:09;;;;;;;19.60;9.77;;;;;;;;;;5111378;27;20019;-77
2021/12/17 19:13:35;;;;;;;16.20;9.05;;;;;;;;;;5116880;27;20035;-75
2021/12/17 19:16:01;;;;;;;18.30;9.77;;;;;;;;;;5101901;27;20490;-77
2021/12/17 19:23:57;;;;;;;18.83;10.45;;;;;;;;;;5102250;27;20035;-77
2021/12/17 19:26:23;;;;;;;20.75;10.48;;;;;;;;;;5102164;27;20019;-79
2021/12/17 19:28:49;;;;;;;19.55;9.73;;;;;;;;;;5079515;28;20687;-78
2021/12/17 19:31:15;;;;;;;19.77;9.07;;;;;;;;;;5097427;27;20066;-80
2021/12/17 19:33:42;;;;;;;17.92;9.40;;;;;;;;;;5104889;27;20118;-76
2021/12/17 19:36:09;;;;;;;18.83;9.57;;;;;;;;;;5111372;27;20020;-74
2021/12/17 19:38:36;;;;;;;20.15;9.73;;;;;;;;;;5115617;27;20058;-72
2021/12/17 19:41:02;;;;;;;15.48;9.38;;;;;;;;;;5110218;27;20422;-71
2021/12/17 19:43:28;;;;;;;19.52;9.85;;;;;;;;;;5096604;27;20023;-74
2021/12/17 19:45:55;;;;;;;17.23;9.93;;;;;;;;;;5115704;27;20015;-71
2021/12/17 19:50:48;;;;;;;14.68;9.38;;;;;;;;;;5121295;27;20607;-73
2021/12/17 19:53:15;;;;;;;16.17;9.38;;;;;;;;;;5112277;28;20031;-71
2021/12/17 19:55:41;;;;;;;16.88;9.30;;;;;;;;;;5110327;28;20711;-70
2021/12/17 19:58:09;;;;;;;23.75;10.95;;;;;;;;;;5115533;28;20027;-71
2021/12/17 20:00:36;;;;;;;21.60;10.38;;;;;;;;;;5109828;28;20035;-72
2021/12/17 20:03:07;;;;;;;19.02;9.85;;;;;;;;;;5115472;28;20024;-73
2021/12/17 20:05:34;;;;;;;19.65;10.65;;;;;;;;;;5114104;28;21825;-74
2021/12/17 20:08:02;;;;;;;24.05;12.65;;;;;;;;;;5116520;28;20467;-71
2021/12/17 20:10:28;;;;;;;21.38;10.82;;;;;;;;;;5115410;28;20023;-74
2021/12/17 20:12:54;;;;;;;13.57;9.27;;;;;;;;;;5094900;28;20038;-74
2021/12/17 20:15:21;;;;;;;15.20;9.07;;;;;;;;;;5117262;28;20425;-73
2021/12/17 20:17:47;;;;;;;13.13;9.55;;;;;;;;;;5114442;28;20027;-73
2021/12/17 20:20:14;;;;;;;17.40;9.70;;;;;;;;;;5101876;28;20047;-75
2021/12/17 20:22:40;;;;;;;17.63;9.63;;;;;;;;;;5113537;28;20031;-70
2021/12/17 20:25:07;;;;;;;17.67;9.70;;;;;;;;;;5112797;28;20073;-72
2021/12/17 20:27:33;;;;;;;15.90;9.63;;;;;;;;;;5116238;28;20030;-74
2021/12/17 20:30:00;;;;;;;15.25;10.35;;;;;;;;;;5120309;28;20042;-70
2021/12/17 20:32:27;;;;;;;17.35;9.75;;;;;;;;;;5123485;28;20027;-71
2021/12/17 20:34:54;;;;;;;20.85;10.57;;;;;;;;;;5102918;28;20028;-72
2021/12/17 20:37:20;;;;;;;19.25;9.70;;;;;;;;;;5106361;28;20034;-72
2021/12/17 20:39:49;;;;;;;17.85;10.07;;;;;;;;;;5093571;28;20076;-72
2021/12/17 20:42:21;;;;;;;18.73;10.07;;;;;;;;;;5115149;28;20061;-73
2021/12/17 20:44:47;;;;;;;18.58;10.27;;;;;;;;;;5124764;28;20398;-72
2021/12/17 20:47:13;;;;;;;18.52;10.15;;;;;;;;;;5119215;28;20042;-72
2021/12/17 20:49:39;;;;;;;18.25;10.40;;;;;;;;;;5114392;28;20047;-72
2021/12/17 20:52:05;;;;;;;18.65;10.48;;;;;;;;;;5105095;28;20539;-72
2021/12/17 20:54:33;;;;;;;19.88;10.30;;;;;;;;;;5119259;28;20034;-71
2021/12/17 20:56:59;;;;;;;23.10;10.77;;;;;;;;;;5113011;28;20390;-72
2021/12/17 20:59:25;;;;;;;13.80;9.07;;;;;;;;;;5102994;27;20452;-72
2021/12/17 21:01:51;;;;;;;19.05;9.57;;;;;;;;;;5111181;27;20027;-72
2021/12/17 21:04:23;;;;;;;19.52;10.10;;;;;;;;;;5121545;27;20034;-72
2021/12/17 21:06:49;;;;;;;18.95;10.60;;;;;;;;;;5121450;27;20051;-72
2021/12/17 21:09:15;;;;;;;19.38;9.45;;;;;;;;;;5120229;27;20098;-70
2021/12/17 21:11:44;;;;;;;15.68;9.93;;;;;;;;;;5121356;27;20027;-72
2021/12/17 21:14:16;;;;;;;17.42;9.73;;;;;;;;;;5119438;27;20023;-72
2021/12/17 21:16:42;;;;;;;18.92;9.77;;;;;;;;;;5120743;27;20042;-73
2021/12/17 21:19:09;;;;;;;19.40;9.18;;;;;;;;;;5122494;27;20065;-72
2021/12/17 21:21:36;;;;;;;16.20;9.07;;;;;;;;;;5115735;27;20039;-70
2021/12/17 21:24:04;;;;;;;17.02;9.60;;;;;;;;;;5120912;27;20015;-70
2021/12/17 21:26:32;;;;;;;14.23;9.25;;;;;;;;;;5115020;27;20114;-70
2021/12/17 21:28:58;;;;;;;15.98;9.18;;;;;;;;;;5118562;27;20074;-70
2021/12/17 21:31:24;;;;;;;17.80;9.63;;;;;;;;;;5120551;27;20032;-71
2021/12/17 21:33:50;;;;;;;16.70;9.63;;;;;;;;;;5119920;27;20142;-72
2021/12/17 21:36:17;;;;;;;16.73;9.30;;;;;;;;;;5102271;27;20042;-71
2021/12/17 21:38:45;;;;;;;16.80;9.52;;;;;;;;;;5119519;27;20512;-70
2021/12/17 21:41:12;;;;;;;17.73;8.60;;;;;;;;;;5101131;27;20059;-71
2021/12/17 21:43:41;;;;;;;15.57;8.52;;;;;;;;;;5116298;27;20475;-71
2021/12/17 21:46:07;;;;;;;15.98;8.73;;;;;;;;;;5117985;27;20038;-71
2021/12/17 21:48:33;;;;;;;16.02;9.15;;;;;;;;;;5116005;27;20020;-70
2021/12/17 21:51:00;;;;;;;17.33;9.32;;;;;;;;;;5118923;27;20064;-70
2021/12/17 21:53:26;;;;;;;13.32;8.77;;;;;;;;;;5111070;27;20024;-72
2021/12/17 21:55:53;;;;;;;15.63;8.95;;;;;;;;;;5099267;27;20499;-72
2021/12/17 21:58:19;;;;;;;14.15;9.25;;;;;;;;;;5113037;27;20164;-73
2021/12/17 22:00:46;;;;;;;18.20;9.48;;;;;;;;;;5102229;27;20043;-73
2021/12/17 22:03:16;;;;;;;16.73;8.80;;;;;;;;;;5116429;27;20032;-72
2021/12/17 22:05:42;;;;;;;16.77;9.20;;;;;;;;;;5125069;27;20077;-73
2021/12/17 22:08:09;;;;;;;14.40;8.80;;;;;;;;;;5115940;27;20028;-74
2021/12/17 22:10:35;;;;;;;20.30;9.68;;;;;;;;;;5121597;27;20037;-73
2021/12/17 22:13:01;;;;;;;16.70;9.35;;;;;;;;;;5105718;27;20019;-72
2021/12/17 22:15:29;;;;;;;19.67;10.23;;;;;;;;;;5113661;27;20073;-71
2021/12/17 22:17:56;;;;;;;17.00;8.98;;;;;;;;;;5121622;27;20019;-70
2021/12/17 22:20:32;;;;;;;13.55;9.00;;;;;;;;;;5117144;27;20031;-71
2021/12/17 22:23:00;;;;;;;15.85;8.57;;;;;;;;;;5113889;27;20411;-72
2021/12/17 22:25:26;;;;;;;17.48;9.27;;;;;;;;;;5103279;27;20035;-71
2021/12/17 22:27:52;;;;;;;17.27;8.85;;;;;;;;;;5103683;27;20038;-72
2021/12/17 22:30:19;;;;;;;14.05;8.02;;;;;;;;;;5119974;27;20038;-72
2021/12/17 22:32:45;;;;;;;13.38;8.40;;;;;;;;;;5115415;27;20475;-72
2021/12/17 22:35:14;;;;;;;18.33;8.85;;;;;;;;;;5117297;27;20035;-74
2021/12/17 22:37:42;;;;;;;12.43;7.15;;;;;;;;;;5117100;27;20520;-74
2021/12/17 22:40:12;;;;;;;19.98;8.60;;;;;;;;;;5121665;27;20027;-74
2021/12/17 22:42:41;;;;;;;14.02;8.55;;;;;;;;;;5118619;27;20024;-73
2021/12/17 22:45:14;;;;;;;16.33;9.80;;;;;;;;;;5095769;27;20027;-72
2021/12/17 22:47:41;;;;;;;14.65;8.95;;;;;;;;;;5103542;27;20068;-72
2021/12/17 22:50:09;;;;;;;19.45;8.63;;;;;;;;;;5116038;27;20114;-70
2021/12/17 22:52:35;;;;;;;16.70;8.07;;;;;;;;;;5094198;27;20402;-71
2021/12/17 22:55:01;;;;;;;15.43;8.30;;;;;;;;;;5117182;27;20011;-72
2021/12/17 22:57:34;;;;;;;17.30;7.63;;;;;;;;;;5117145;27;20080;-71
2021/12/17 23:00:00;;;;;;;12.30;7.28;;;;;;;;;;5112639;27;20461;-72
2021/12/17 23:02:30;;;;;;;14.93;8.38;;;;;;;;;;5094570;28;20044;-71
2021/12/17 23:05:00;;;;;;;18.02;8.25;;;;;;;;;;5093205;28;20158;-71
2021/12/17 23:07:43;;;;;;;17.42;8.25;;;;;;;;;;5113316;27;20459;-71
2021/12/17 23:10:10;;;;;;;14.68;8.85;;;;;;;;;;5116366;27;20050;-71
2021/12/17 23:12:36;;;;;;;14.98;8.48;;;;;;;;;;5118611;27;20048;-70
2021/12/17 23:15:02;;;;;;;17.70;8.98;;;;;;;;;;5118450;27;20033;-72
2021/12/17 23:17:34;;;;;;;28.95;10.57;;;;;;;;;;5116058;27;20034;-71
